Time;durP1;ratioP1;P1;durP2;ratioP2;P2;SDS_P1;SDS_P2;PMS_P1;PMS_P2;Temp;Humidity;BMP_temperature;BMP_pressure;BME280_temperature;BME280_humidity;BME280_pressure;Samples;Min_cycle;Max_cycle;Signal;HPM_P1;HPM_P2
2023/03/11 00:01:49;;;;;;;;;;;21.20;80.30;;;;;;5115000;28;20358;-60
2023/03/11 00:04:14;;;;;;;;;;;21.20;80.20;;;;;;5115022;28;19996;-60
2023/03/11 00:06:39;;;;;;;;;;;21.20;80.30;;;;;;5115049;28;20341;-60
2023/03/11 00:09:05;;;;;;;;;;;21.20;80.30;;;;;;5079713;28;19908;-60
2023/03/11 00:11:30;;;;;;;;;;;21.20;80.30;;;;;;5114895;28;19952;-60
2023/03/11 00:13:56;;;;;;;;;;;21.20;80.30;;;;;;5114833;28;20360;-60
2023/03/11 00:16:21;;;;;;;;;;;21.10;80.40;;;;;;5114768;28;19983;-60
2023/03/11 00:18:50;;;;;;;;;;;21.20;80.60;;;;;;5114787;28;19908;-59
2023/03/11 00:21:16;;;;;;;;;;;21.10;80.60;;;;;;5114663;28;20024;-60
2023/03/11 00:23:42;;;;;;;;;;;21.20;80.70;;;;;;5115033;28;19995;-60
2023/03/11 00:26:07;;;;;;;;;;;21.10;80.70;;;;;;5114762;28;20488;-60
2023/03/11 00:28:33;;;;;;;;;;;21.10;80.80;;;;;;5114348;28;20378;-59
2023/03/11 00:30:58;;;;;;;;;;;21.10;80.90;;;;;;5114669;28;19952;-60
2023/03/11 00:33:24;;;;;;;;;;;21.10;81.00;;;;;;5114606;28;19968;-60
2023/03/11 00:35:49;;;;;;;;;;;21.10;81.00;;;;;;5114421;28;20255;-60
2023/03/11 00:38:15;;;;;;;;;;;21.10;81.00;;;;;;5114195;28;19912;-60
2023/03/11 00:40:42;;;;;;;;;;;21.20;80.70;;;;;;5113823;28;19930;-60
2023/03/11 00:43:07;;;;;;;;;;;21.20;80.80;;;;;;5114448;28;20003;-60
2023/03/11 00:45:33;;;;;;;;;;;21.20;80.90;;;;;;5114356;28;19951;-60
2023/03/11 00:47:59;;;;;;;;;;;21.20;80.70;;;;;;5114022;28;20282;-60
2023/03/11 00:50:26;;;;;;;;;;;21.20;80.80;;;;;;5114077;28;19912;-61
2023/03/11 00:52:51;;;;;;;;;;;21.20;80.90;;;;;;5114280;28;20371;-60
2023/03/11 00:55:18;;;;;;;;;;;21.20;80.90;;;;;;5114034;28;19947;-60
2023/03/11 00:57:44;;;;;;;;;;;21.20;80.80;;;;;;5113904;28;20243;-61
2023/03/11 01:00:14;;;;;;;;;;;21.20;80.70;;;;;;5114426;28;19907;-61
2023/03/11 01:02:40;;;;;;;;;;;21.20;80.60;;;;;;5113933;28;20435;-60
2023/03/11 01:05:05;;;;;;;;;;;21.20;80.70;;;;;;5114534;28;19987;-61
2023/03/11 01:07:32;;;;;;;;;;;21.20;80.50;;;;;;5114211;28;20279;-60
2023/03/11 01:09:58;;;;;;;;;;;21.20;80.50;;;;;;5113912;28;20393;-61
2023/03/11 01:12:23;;;;;;;;;;;21.20;80.50;;;;;;5095908;28;19947;-61
2023/03/11 01:14:49;;;;;;;;;;;21.20;80.50;;;;;;5114156;28;20002;-61
2023/03/11 01:17:14;;;;;;;;;;;21.10;80.50;;;;;;5113914;28;19933;-61
2023/03/11 01:19:40;;;;;;;;;;;21.20;80.50;;;;;;5114117;28;20278;-60
2023/03/11 01:22:05;;;;;;;;;;;21.20;80.50;;;;;;5114098;28;20365;-60
2023/03/11 01:24:30;;;;;;;;;;;21.10;80.40;;;;;;5114279;28;19953;-59
2023/03/11 01:26:56;;;;;;;;;;;21.10;80.50;;;;;;5113719;28;20350;-61
2023/03/11 01:29:21;;;;;;;;;;;21.10;80.60;;;;;;5113940;28;19908;-60
2023/03/11 01:31:47;;;;;;;;;;;21.10;80.70;;;;;;5113800;28;19908;-60
2023/03/11 01:34:12;;;;;;;;;;;21.10;80.80;;;;;;5113717;28;20354;-60
2023/03/11 01:36:38;;;;;;;;;;;21.10;80.80;;;;;;5114355;28;19915;-60
2023/03/11 01:39:03;;;;;;;;;;;21.10;80.90;;;;;;5113964;28;19959;-61
2023/03/11 01:41:29;;;;;;;;;;;21.10;80.60;;;;;;5113939;28;19927;-61
2023/03/11 01:43:55;;;;;;;;;;;21.00;80.70;;;;;;5114279;28;19965;-60
2023/03/11 01:46:25;;;;;;;;;;;21.00;80.90;;;;;;5095650;28;19915;-60
2023/03/11 01:48:50;;;;;;;;;;;21.00;81.60;;;;;;5116042;28;20392;-60
2023/03/11 01:51:35;;;;;;;;;;;21.00;81.20;;;;;;5117938;28;20002;-60
2023/03/11 01:54:05;;;;;;;;;;;21.00;81.20;;;;;;5117823;28;19908;-61
2023/03/11 01:56:31;;;;;;;;;;;21.00;81.10;;;;;;5117498;28;19912;-60
2023/03/11 01:58:57;;;;;;;;;;;21.00;81.00;;;;;;5117491;28;19958;-61
2023/03/11 02:01:23;;;;;;;;;;;21.10;81.00;;;;;;5117420;28;19963;-61
2023/03/11 02:03:48;;;;;;;;;;;21.10;81.00;;;;;;5116964;28;19955;-60
2023/03/11 02:06:19;;;;;;;;;;;21.10;80.80;;;;;;5099458;28;19986;-60
2023/03/11 02:08:44;;;;;;;;;;;21.10;80.80;;;;;;5116997;28;19912;-60
2023/03/11 02:11:12;;;;;;;;;;;21.10;80.90;;;;;;5117371;28;20247;-60
2023/03/11 02:13:38;;;;;;;;;;;21.00;80.70;;;;;;5098970;28;19908;-60
2023/03/11 02:16:04;;;;;;;;;;;21.10;80.80;;;;;;5116863;28;19953;-60
2023/03/11 02:18:30;;;;;;;;;;;21.10;80.60;;;;;;5117105;28;19908;-60
2023/03/11 02:20:58;;;;;;;;;;;21.10;80.60;;;;;;5098683;28;19915;-60
2023/03/11 02:23:26;;;;;;;;;;;21.10;80.70;;;;;;5117067;28;19908;-60
2023/03/11 02:25:59;;;;;;;;;;;21.10;80.60;;;;;;5116987;28;19947;-60
2023/03/11 02:28:25;;;;;;;;;;;21.10;80.60;;;;;;5117147;28;20139;-60
2023/03/11 02:30:51;;;;;;;;;;;21.10;80.60;;;;;;5098602;28;20261;-60
2023/03/11 02:33:17;;;;;;;;;;;21.10;80.60;;;;;;5116905;28;19908;-60
2023/03/11 02:35:42;;;;;;;;;;;21.10;80.50;;;;;;5116805;28;19907;-61
2023/03/11 02:38:08;;;;;;;;;;;21.10;80.40;;;;;;5116781;28;19937;-60
2023/03/11 02:40:54;;;;;;;;;;;21.10;80.50;;;;;;5116535;28;19920;-60
2023/03/11 02:43:22;;;;;;;;;;;21.10;80.50;;;;;;5116594;28;19908;-61
2023/03/11 02:45:48;;;;;;;;;;;21.10;80.50;;;;;;5116613;28;20003;-60
2023/03/11 02:48:15;;;;;;;;;;;21.10;80.60;;;;;;5116899;28;19951;-60
2023/03/11 02:50:41;;;;;;;;;;;21.10;80.70;;;;;;5116602;28;19908;-60
2023/03/11 02:53:06;;;;;;;;;;;21.10;80.80;;;;;;5116331;28;19907;-59
2023/03/11 02:55:32;;;;;;;;;;;21.10;80.80;;;;;;5116399;28;19947;-60
2023/03/11 02:57:58;;;;;;;;;;;21.00;81.00;;;;;;5098118;28;19911;-59
2023/03/11 03:00:23;;;;;;;;;;;21.00;81.00;;;;;;5116211;28;20251;-60
2023/03/11 03:02:51;;;;;;;;;;;21.00;80.70;;;;;;5116007;28;19908;-60
2023/03/11 03:05:17;;;;;;;;;;;21.10;80.90;;;;;;5116172;28;20006;-60
2023/03/11 03:07:42;;;;;;;;;;;21.10;80.80;;;;;;5097908;28;19943;-60
2023/03/11 03:10:08;;;;;;;;;;;21.10;80.80;;;;;;5097800;28;19915;-60
2023/03/11 03:12:33;;;;;;;;;;;21.10;80.60;;;;;;5115907;28;20002;-60
2023/03/11 03:14:59;;;;;;;;;;;21.10;80.60;;;;;;5116033;28;19908;-60
2023/03/11 03:17:24;;;;;;;;;;;21.10;80.50;;;;;;5115722;28;20363;-60
2023/03/11 03:19:50;;;;;;;;;;;21.20;80.50;;;;;;5115957;28;19908;-60
2023/03/11 03:22:15;;;;;;;;;;;21.20;80.60;;;;;;5115573;28;20456;-60
2023/03/11 03:24:40;;;;;;;;;;;21.10;80.50;;;;;;5115670;28;19915;-60
2023/03/11 03:27:06;;;;;;;;;;;21.20;80.50;;;;;;5097481;28;20270;-60
2023/03/11 03:29:31;;;;;;;;;;;21.20;80.50;;;;;;5115487;28;19912;-60
2023/03/11 03:31:57;;;;;;;;;;;21.20;80.40;;;;;;5115426;28;20002;-60
2023/03/11 03:34:22;;;;;;;;;;;21.20;80.40;;;;;;5115656;28;19907;-60
2023/03/11 03:36:48;;;;;;;;;;;21.10;80.40;;;;;;5115990;28;19912;-60
2023/03/11 03:39:13;;;;;;;;;;;21.20;80.40;;;;;;5115576;28;19908;-61
2023/03/11 03:41:39;;;;;;;;;;;21.20;80.30;;;;;;5115379;28;19919;-60
2023/03/11 03:44:04;;;;;;;;;;;21.20;80.30;;;;;;5115492;28;20357;-60
2023/03/11 03:46:30;;;;;;;;;;;21.20;80.30;;;;;;5115712;28;20266;-60
2023/03/11 03:48:55;;;;;;;;;;;21.20;80.30;;;;;;5115333;28;19908;-60
2023/03/11 03:51:21;;;;;;;;;;;21.20;80.30;;;;;;5115314;28;19908;-60
2023/03/11 03:53:46;;;;;;;;;;;21.10;80.30;;;;;;5114951;28;20354;-60
2023/03/11 03:56:13;;;;;;;;;;;21.10;80.30;;;;;;5115263;28;19961;-60
2023/03/11 03:58:39;;;;;;;;;;;21.10;80.40;;;;;;5115197;28;19911;-60
2023/03/11 04:01:05;;;;;;;;;;;21.10;80.30;;;;;;5115243;28;19926;-60
2023/03/11 04:03:32;;;;;;;;;;;21.10;80.30;;;;;;5115080;28;19908;-60
2023/03/11 04:06:05;;;;;;;;;;;21.10;80.40;;;;;;5115073;28;19947;-60
2023/03/11 04:08:30;;;;;;;;;;;21.10;80.60;;;;;;5115277;28;19990;-60
2023/03/11 04:10:56;;;;;;;;;;;21.10;80.70;;;;;;5114618;28;19908;-60
2023/03/11 04:13:22;;;;;;;;;;;21.10;80.70;;;;;;5114992;28;19907;-60
2023/03/11 04:15:47;;;;;;;;;;;21.00;80.70;;;;;;5114592;28;19999;-60
2023/03/11 04:18:13;;;;;;;;;;;21.00;80.70;;;;;;5114647;28;19907;-60
2023/03/11 04:20:38;;;;;;;;;;;21.00;80.80;;;;;;5114460;28;19916;-59
2023/03/11 04:23:04;;;;;;;;;;;21.00;80.70;;;;;;5114826;28;20434;-60
2023/03/11 04:25:29;;;;;;;;;;;21.10;81.10;;;;;;5114480;28;19907;-60
2023/03/11 04:27:55;;;;;;;;;;;21.10;80.50;;;;;;5114717;28;19911;-60
2023/03/11 04:30:20;;;;;;;;;;;21.10;80.50;;;;;;5114421;28;20362;-60
2023/03/11 04:32:46;;;;;;;;;;;21.10;80.50;;;;;;5114155;28;20044;-60
2023/03/11 04:35:11;;;;;;;;;;;21.10;80.60;;;;;;5114308;28;20255;-60
2023/03/11 04:37:37;;;;;;;;;;;21.10;80.40;;;;;;5114969;28;19908;-60
2023/03/11 04:40:04;;;;;;;;;;;21.10;80.30;;;;;;5114391;28;19908;-60
2023/03/11 04:42:29;;;;;;;;;;;21.10;80.30;;;;;;5114234;28;19916;-59
2023/03/11 04:44:55;;;;;;;;;;;21.20;80.40;;;;;;5114452;28;20408;-60
2023/03/11 04:47:20;;;;;;;;;;;21.20;80.40;;;;;;5114270;28;19907;-60
2023/03/11 04:49:46;;;;;;;;;;;21.20;80.30;;;;;;5114157;28;19962;-60
2023/03/11 04:52:11;;;;;;;;;;;21.20;80.30;;;;;;5114198;28;19908;-60
2023/03/11 04:54:37;;;;;;;;;;;21.20;80.20;;;;;;5114069;28;19908;-60
2023/03/11 04:57:02;;;;;;;;;;;21.20;80.20;;;;;;5114438;28;19908;-60
2023/03/11 04:59:28;;;;;;;;;;;21.20;80.20;;;;;;5114152;28;20418;-60
2023/03/11 05:01:54;;;;;;;;;;;21.20;80.30;;;;;;5114316;28;20271;-60
2023/03/11 05:04:19;;;;;;;;;;;21.20;80.20;;;;;;5114636;28;19912;-60
2023/03/11 05:06:45;;;;;;;;;;;21.20;80.20;;;;;;5114274;28;20358;-60
2023/03/11 05:09:10;;;;;;;;;;;21.10;80.40;;;;;;5114356;28;19915;-60
2023/03/11 05:11:36;;;;;;;;;;;21.20;80.30;;;;;;5114565;28;19915;-60
2023/03/11 05:14:01;;;;;;;;;;;21.20;80.40;;;;;;5113834;28;19915;-60
2023/03/11 05:16:26;;;;;;;;;;;21.20;80.50;;;;;;5114257;28;19914;-60
2023/03/11 05:18:52;;;;;;;;;;;21.10;80.60;;;;;;5113956;28;19908;-60
2023/03/11 05:21:17;;;;;;;;;;;21.20;80.70;;;;;;5112649;28;20415;-60
2023/03/11 05:23:44;;;;;;;;;;;21.10;80.70;;;;;;5097918;28;19908;-60
2023/03/11 05:26:10;;;;;;;;;;;21.10;80.70;;;;;;5119220;27;20274;-60
2023/03/11 05:28:35;;;;;;;;;;;21.10;80.80;;;;;;5116780;28;19919;-60
2023/03/11 05:31:01;;;;;;;;;;;21.00;81.00;;;;;;5115758;28;19969;-60
2023/03/11 05:33:31;;;;;;;;;;;21.10;81.00;;;;;;5116111;28;20215;-60
2023/03/11 05:36:02;;;;;;;;;;;21.10;80.80;;;;;;5116075;28;20406;-60
2023/03/11 05:38:27;;;;;;;;;;;21.20;80.70;;;;;;5116293;28;19918;-61
2023/03/11 05:40:53;;;;;;;;;;;21.20;78.00;;;;;;5115813;28;19920;-61
2023/03/11 05:43:18;;;;;;;;;;;21.20;80.40;;;;;;5117564;28;19960;-62
2023/03/11 05:45:43;;;;;;;;;;;21.20;80.50;;;;;;5117713;28;19908;-61
2023/03/11 05:48:09;;;;;;;;;;;21.20;80.50;;;;;;5117411;28;19996;-61
2023/03/11 05:50:34;;;;;;;;;;;21.20;80.60;;;;;;5117970;28;20346;-61
2023/03/11 05:53:00;;;;;;;;;;;21.20;80.30;;;;;;5117904;28;19915;-62
2023/03/11 05:55:25;;;;;;;;;;;21.20;80.20;;;;;;5117630;28;19911;-61
2023/03/11 05:57:51;;;;;;;;;;;21.20;80.10;;;;;;5117471;28;19908;-61
2023/03/11 06:00:19;;;;;;;;;;;21.20;80.10;;;;;;5117397;28;19912;-61
2023/03/11 06:02:44;;;;;;;;;;;21.10;80.00;;;;;;5117527;28;19915;-61
2023/03/11 06:05:10;;;;;;;;;;;21.00;80.20;;;;;;5117405;28;19993;-61
2023/03/11 06:07:35;;;;;;;;;;;21.00;80.30;;;;;;5116974;28;19908;-61
2023/03/11 06:10:01;;;;;;;;;;;20.90;77.30;;;;;;5117012;28;19959;-62
2023/03/11 06:12:27;;;;;;;;;;;20.90;80.00;;;;;;5115565;28;20002;-62
2023/03/11 06:14:52;;;;;;;;;;;20.90;80.00;;;;;;5117210;28;19912;-61
2023/03/11 06:17:18;;;;;;;;;;;20.90;80.10;;;;;;5116728;28;19914;-61
2023/03/11 06:19:43;;;;;;;;;;;20.90;80.00;;;;;;5117109;28;19915;-61
2023/03/11 06:22:09;;;;;;;;;;;20.90;80.00;;;;;;5116760;28;20010;-61
2023/03/11 06:24:34;;;;;;;;;;;20.90;79.90;;;;;;5116990;28;20262;-62
2023/03/11 06:27:00;;;;;;;;;;;20.90;80.00;;;;;;5116809;28;19915;-62
2023/03/11 06:29:25;;;;;;;;;;;20.90;80.10;;;;;;5116491;28;19907;-62
2023/03/11 06:31:51;;;;;;;;;;;20.90;80.00;;;;;;5116765;28;19931;-62
2023/03/11 06:34:16;;;;;;;;;;;20.90;79.90;;;;;;5116203;28;19986;-61
2023/03/11 06:36:41;;;;;;;;;;;21.00;79.90;;;;;;5116458;28;19914;-61
2023/03/11 06:39:08;;;;;;;;;;;20.90;79.80;;;;;;5116466;28;20397;-62
2023/03/11 06:41:33;;;;;;;;;;;21.00;79.90;;;;;;5116639;28;19920;-61
2023/03/11 06:43:59;;;;;;;;;;;21.00;79.60;;;;;;5116491;28;19915;-61
2023/03/11 06:46:24;;;;;;;;;;;21.00;79.70;;;;;;5116313;28;19935;-61
2023/03/11 06:48:51;;;;;;;;;;;21.00;79.50;;;;;;5116181;28;20371;-61
2023/03/11 06:51:16;;;;;;;;;;;21.00;79.40;;;;;;5115822;28;19912;-61
2023/03/11 06:53:42;;;;;;;;;;;21.10;79.30;;;;;;5114971;28;19919;-61
2023/03/11 06:56:07;;;;;;;;;;;21.10;79.40;;;;;;5116372;28;19908;-61
2023/03/11 06:58:33;;;;;;;;;;;21.10;79.30;;;;;;5115810;28;20363;-61
2023/03/11 07:01:03;;;;;;;;;;;21.20;79.40;;;;;;5115662;28;20362;-62
2023/03/11 07:03:29;;;;;;;;;;;21.20;79.20;;;;;;5116228;28;19960;-61
2023/03/11 07:05:54;;;;;;;;;;;21.10;79.20;;;;;;5115885;28;19915;-62
2023/03/11 07:08:20;;;;;;;;;;;21.20;79.30;;;;;;5116091;28;19908;-62
2023/03/11 07:10:47;;;;;;;;;;;21.20;79.30;;;;;;5115994;28;19908;-61
2023/03/11 07:13:12;;;;;;;;;;;21.10;79.30;;;;;;5115936;28;19953;-62
2023/03/11 07:15:38;;;;;;;;;;;21.10;79.30;;;;;;5115877;28;19908;-61
2023/03/11 07:18:03;;;;;;;;;;;21.10;79.40;;;;;;5097412;28;20357;-61
2023/03/11 07:20:29;;;;;;;;;;;21.10;79.30;;;;;;5115422;28;19907;-61
2023/03/11 07:22:54;;;;;;;;;;;21.10;79.20;;;;;;5115728;28;19912;-61
2023/03/11 07:25:20;;;;;;;;;;;21.10;79.20;;;;;;5114644;28;20358;-62
2023/03/11 07:27:45;;;;;;;;;;;21.00;79.30;;;;;;5115843;28;19907;-61
2023/03/11 07:30:11;;;;;;;;;;;21.00;79.30;;;;;;5115087;28;19915;-62
2023/03/11 07:32:36;;;;;;;;;;;21.00;79.40;;;;;;5115459;28;20362;-62
2023/03/11 07:35:02;;;;;;;;;;;20.90;79.40;;;;;;5115388;28;19908;-61
2023/03/11 07:37:27;;;;;;;;;;;20.90;79.40;;;;;;5096881;28;19914;-61
2023/03/11 07:39:53;;;;;;;;;;;20.90;79.50;;;;;;5114452;27;19908;-61
2023/03/11 07:42:18;;;;;;;;;;;20.90;79.70;;;;;;5115245;28;19961;-62
2023/03/11 07:44:44;;;;;;;;;;;20.80;79.80;;;;;;5115107;28;19908;-61
2023/03/11 07:47:09;;;;;;;;;;;20.80;79.60;;;;;;5113941;28;19908;-61
2023/03/11 07:49:35;;;;;;;;;;;20.80;79.60;;;;;;5114757;28;19918;-62
2023/03/11 07:52:00;;;;;;;;;;;20.90;79.60;;;;;;5114846;28;19949;-61
2023/03/11 07:54:26;;;;;;;;;;;20.90;79.60;;;;;;5115278;28;19937;-61
2023/03/11 07:56:51;;;;;;;;;;;20.90;79.60;;;;;;5114971;28;20016;-62
2023/03/11 07:59:17;;;;;;;;;;;20.90;79.60;;;;;;5114577;28;19995;-61
2023/03/11 08:01:45;;;;;;;;;;;20.90;79.60;;;;;;5114979;28;19923;-62
2023/03/11 08:04:12;;;;;;;;;;;20.90;79.50;;;;;;5096628;28;19930;-61
2023/03/11 08:06:40;;;;;;;;;;;21.00;79.50;;;;;;5114502;28;19974;-61
2023/03/11 08:09:06;;;;;;;;;;;21.00;79.40;;;;;;5114398;28;19908;-61
2023/03/11 08:11:32;;;;;;;;;;;21.10;79.20;;;;;;5114544;28;20429;-62
2023/03/11 08:13:58;;;;;;;;;;;21.10;79.00;;;;;;5115079;28;19999;-62
2023/03/11 08:16:23;;;;;;;;;;;21.10;79.00;;;;;;5114720;28;19908;-61
2023/03/11 08:18:49;;;;;;;;;;;21.10;78.90;;;;;;5114705;28;19939;-61
2023/03/11 08:21:17;;;;;;;;;;;21.10;79.00;;;;;;5118248;27;19928;-61
2023/03/11 08:23:42;;;;;;;;;;;21.10;79.10;;;;;;5129457;27;20255;-62
2023/03/11 08:26:09;;;;;;;;;;;21.10;79.10;;;;;;5126712;27;19929;-61
2023/03/11 08:28:35;;;;;;;;;;;21.10;79.20;;;;;;5114428;28;19912;-62
2023/03/11 08:31:00;;;;;;;;;;;21.00;79.10;;;;;;5114586;28;20040;-61
2023/03/11 08:33:26;;;;;;;;;;;21.00;79.20;;;;;;5114795;28;19915;-61
2023/03/11 08:35:52;;;;;;;;;;;21.00;79.30;;;;;;5113977;28;19908;-61
2023/03/11 08:38:17;;;;;;;;;;;21.00;79.40;;;;;;5114771;27;19908;-62
2023/03/11 08:40:43;;;;;;;;;;;21.10;79.30;;;;;;5134376;27;19942;-62
2023/03/11 08:43:11;;;;;;;;;;;21.10;79.20;;;;;;5126357;28;19908;-62
2023/03/11 08:45:38;;;;;;;;;;;21.20;79.00;;;;;;5114323;28;19908;-61
2023/03/11 08:48:04;;;;;;;;;;;21.20;78.80;;;;;;5113888;28;19994;-62
2023/03/11 08:50:29;;;;;;;;;;;21.30;78.90;;;;;;5114543;28;20374;-61
2023/03/11 08:52:55;;;;;;;;;;;21.30;78.80;;;;;;5095838;28;20319;-61
2023/03/11 08:55:26;;;;;;;;;;;21.20;78.80;;;;;;5113985;28;19908;-61
2023/03/11 08:57:51;;;;;;;;;;;21.20;78.80;;;;;;5098281;28;20402;-61
2023/03/11 09:00:17;;;;;;;;;;;21.10;78.70;;;;;;5118263;28;19908;-61
2023/03/11 09:02:43;;;;;;;;;;;21.10;78.90;;;;;;5100032;28;19908;-61
2023/03/11 09:05:08;;;;;;;;;;;21.00;78.90;;;;;;5118254;28;20262;-61
2023/03/11 09:07:34;;;;;;;;;;;21.00;79.10;;;;;;5120163;27;20002;-61
2023/03/11 09:09:59;;;;;;;;;;;20.90;79.40;;;;;;5118515;27;19934;-61
2023/03/11 09:12:25;;;;;;;;;;;20.80;79.50;;;;;;5118215;28;20450;-61
2023/03/11 09:14:50;;;;;;;;;;;20.80;79.70;;;;;;5118763;27;20394;-61
2023/03/11 09:17:16;;;;;;;;;;;20.70;79.80;;;;;;5117452;28;19915;-61
2023/03/11 09:19:41;;;;;;;;;;;20.70;79.80;;;;;;5119701;27;19911;-61
2023/03/11 09:22:07;;;;;;;;;;;20.80;79.90;;;;;;5124975;27;19912;-61
2023/03/11 09:24:33;;;;;;;;;;;20.80;79.70;;;;;;5118006;28;19907;-61
2023/03/11 09:26:59;;;;;;;;;;;20.90;79.40;;;;;;5133134;27;19907;-61
2023/03/11 09:29:24;;;;;;;;;;;21.00;79.10;;;;;;5138363;27;19998;-61
2023/03/11 09:31:50;;;;;;;;;;;21.10;78.90;;;;;;5138459;27;19904;-61
2023/03/11 09:34:15;;;;;;;;;;;21.20;78.70;;;;;;5125195;27;19911;-61
2023/03/11 09:36:41;;;;;;;;;;;21.30;78.60;;;;;;5117929;28;19966;-61
2023/03/11 09:39:07;;;;;;;;;;;21.40;78.20;;;;;;5117672;28;19942;-61
2023/03/11 09:41:48;;;;;;;;;;;21.40;78.20;;;;;;5121219;27;19916;-61
2023/03/11 09:44:16;;;;;;;;;;;21.40;78.20;;;;;;5138149;27;19903;-62
2023/03/11 09:46:48;;;;;;;;;;;21.30;78.30;;;;;;5137952;27;19903;-61
2023/03/11 09:49:18;;;;;;;;;;;21.20;78.60;;;;;;5137888;27;19964;-61
2023/03/11 09:51:59;;;;;;;;;;;21.10;78.70;;;;;;5124712;27;19925;-61
2023/03/11 09:54:27;;;;;;;;;;;21.10;78.90;;;;;;5117324;28;19914;-61
2023/03/11 09:56:53;;;;;;;;;;;21.00;79.00;;;;;;5136937;27;19907;-61
2023/03/11 09:59:29;;;;;;;;;;;20.90;79.30;;;;;;5137710;27;20338;-60
2023/03/11 10:01:54;;;;;;;;;;;20.90;79.40;;;;;;5137803;27;19911;-61
2023/03/11 10:04:28;;;;;;;;;;;20.80;79.40;;;;;;5137866;27;19910;-61
2023/03/11 10:06:53;;;;;;;;;;;20.80;79.40;;;;;;5137863;27;19903;-61
2023/03/11 10:09:22;;;;;;;;;;;20.90;79.30;;;;;;5115949;27;19948;-61
2023/03/11 10:11:50;;;;;;;;;;;20.90;79.10;;;;;;5115892;28;20302;-61
2023/03/11 10:14:34;;;;;;;;;;;20.90;79.10;;;;;;5109450;28;20340;-61
2023/03/11 10:17:04;;;;;;;;;;;21.10;79.00;;;;;;5111706;27;20262;-61
2023/03/11 10:19:49;;;;;;;;;;;21.20;78.80;;;;;;5117662;27;19918;-61
2023/03/11 10:22:30;;;;;;;;;;;21.30;77.30;;;;;;5117329;27;20061;-61
2023/03/11 10:25:01;;;;;;;;;;;21.40;78.10;;;;;;5116450;28;20060;-61
2023/03/11 10:27:52;;;;;;;;;;;21.50;78.10;;;;;;5116619;28;19944;-62
2023/03/11 10:30:32;;;;;;;;;;;21.50;78.00;;;;;;5114473;27;19920;-62
2023/03/11 10:33:02;;;;;;;;;;;21.40;78.10;;;;;;5117724;27;19911;-61
2023/03/11 10:35:36;;;;;;;;;;;21.40;78.20;;;;;;5119952;27;19908;-61
2023/03/11 10:38:05;;;;;;;;;;;21.30;78.40;;;;;;5105258;27;19912;-61
2023/03/11 10:40:32;;;;;;;;;;;21.30;78.60;;;;;;5128085;27;19924;-61
2023/03/11 10:42:59;;;;;;;;;;;21.20;78.80;;;;;;5116378;28;19918;-61
2023/03/11 10:45:26;;;;;;;;;;;21.10;78.90;;;;;;5116417;28;19912;-61
2023/03/11 10:47:51;;;;;;;;;;;21.10;79.30;;;;;;5098212;28;19908;-61
2023/03/11 10:50:18;;;;;;;;;;;21.10;79.20;;;;;;5116137;28;19961;-61
2023/03/11 10:53:02;;;;;;;;;;;21.10;79.30;;;;;;5116663;28;19908;-61
2023/03/11 10:55:28;;;;;;;;;;;21.10;79.50;;;;;;5098091;28;20310;-61
2023/03/11 10:58:02;;;;;;;;;;;21.10;79.50;;;;;;5114473;28;19999;-61
2023/03/11 11:00:29;;;;;;;;;;;21.10;79.30;;;;;;5115915;28;19990;-61
2023/03/11 11:02:58;;;;;;;;;;;21.20;79.30;;;;;;5115766;28;19912;-61
2023/03/11 11:05:24;;;;;;;;;;;21.20;79.10;;;;;;5116033;28;19907;-62
2023/03/11 11:07:52;;;;;;;;;;;21.30;78.90;;;;;;5115985;28;19908;-62
2023/03/11 11:10:20;;;;;;;;;;;21.30;79.00;;;;;;5115965;28;19908;-62
2023/03/11 11:12:55;;;;;;;;;;;21.40;78.90;;;;;;5115748;28;19983;-62
2023/03/11 11:15:38;;;;;;;;;;;21.40;78.80;;;;;;5116221;28;19908;-62
2023/03/11 11:18:04;;;;;;;;;;;21.40;78.80;;;;;;5115807;28;19960;-62
2023/03/11 11:20:30;;;;;;;;;;;21.40;78.90;;;;;;5114609;28;19912;-62
2023/03/11 11:23:00;;;;;;;;;;;21.40;78.90;;;;;;5115766;28;19912;-62
2023/03/11 11:25:37;;;;;;;;;;;21.30;78.80;;;;;;5115565;28;20421;-62
2023/03/11 11:28:13;;;;;;;;;;;21.30;78.90;;;;;;5115389;28;19919;-62
2023/03/11 11:30:50;;;;;;;;;;;21.30;79.00;;;;;;5115706;28;20002;-62
2023/03/11 11:33:21;;;;;;;;;;;21.30;79.20;;;;;;5115845;28;19990;-62
2023/03/11 11:35:51;;;;;;;;;;;21.30;79.30;;;;;;5115808;28;19907;-62
2023/03/11 11:38:17;;;;;;;;;;;21.20;79.20;;;;;;5115091;28;19939;-62
2023/03/11 11:40:42;;;;;;;;;;;21.20;79.30;;;;;;5115052;28;19992;-61
2023/03/11 11:43:15;;;;;;;;;;;21.20;79.50;;;;;;5115339;28;19931;-62
2023/03/11 11:45:43;;;;;;;;;;;21.20;79.50;;;;;;5114718;28;19977;-62
2023/03/11 11:48:27;;;;;;;;;;;21.30;79.40;;;;;;5114680;28;19908;-62
2023/03/11 11:50:55;;;;;;;;;;;21.30;79.40;;;;;;5114818;28;19908;-62
2023/03/11 11:53:26;;;;;;;;;;;21.30;79.40;;;;;;5115158;28;19908;-62
2023/03/11 11:55:52;;;;;;;;;;;21.30;79.00;;;;;;5114914;28;19914;-62
2023/03/11 11:58:19;;;;;;;;;;;21.40;79.50;;;;;;5113240;28;19957;-62
2023/03/11 12:00:56;;;;;;;;;;;21.40;79.20;;;;;;5114521;28;20370;-62
2023/03/11 12:03:33;;;;;;;;;;;21.40;79.10;;;;;;5114600;28;19914;-62
2023/03/11 12:06:01;;;;;;;;;;;21.40;79.00;;;;;;5115719;27;19911;-62
2023/03/11 12:08:26;;;;;;;;;;;21.50;79.00;;;;;;5119770;27;19918;-62
2023/03/11 12:10:58;;;;;;;;;;;21.50;78.90;;;;;;5135027;27;19907;-62
2023/03/11 12:13:43;;;;;;;;;;;21.50;79.10;;;;;;5120748;27;19920;-62
2023/03/11 12:16:28;;;;;;;;;;;21.50;79.10;;;;;;5114746;28;19912;-62
2023/03/11 12:19:03;;;;;;;;;;;21.40;79.20;;;;;;5099892;28;20023;-62
2023/03/11 12:21:39;;;;;;;;;;;21.40;79.30;;;;;;5114533;28;19911;-62
2023/03/11 12:24:23;;;;;;;;;;;21.30;79.40;;;;;;5114548;28;19904;-62
2023/03/11 12:26:51;;;;;;;;;;;21.30;79.60;;;;;;5114606;28;19912;-62
2023/03/11 12:29:19;;;;;;;;;;;21.20;79.90;;;;;;5114133;28;19903;-62
2023/03/11 12:31:45;;;;;;;;;;;21.20;80.00;;;;;;5106610;27;19939;-62
2023/03/11 12:34:13;;;;;;;;;;;21.10;79.90;;;;;;5097547;28;19935;-62
2023/03/11 12:36:43;;;;;;;;;;;21.10;80.10;;;;;;5115235;28;19904;-62
2023/03/11 12:39:27;;;;;;;;;;;21.10;80.20;;;;;;5114584;28;19944;-62
2023/03/11 12:42:11;;;;;;;;;;;21.00;80.20;;;;;;5114297;28;19970;-62
2023/03/11 12:44:39;;;;;;;;;;;21.00;80.20;;;;;;5126620;27;21334;-62
2023/03/11 12:47:15;;;;;;;;;;;21.00;80.20;;;;;;5116397;28;19957;-62
2023/03/11 12:49:42;;;;;;;;;;;21.00;80.40;;;;;;5135058;28;19903;-62
2023/03/11 12:52:11;;;;;;;;;;;21.00;80.50;;;;;;5134733;28;19904;-62
2023/03/11 12:54:40;;;;;;;;;;;21.00;80.60;;;;;;5120143;28;20269;-62
2023/03/11 12:57:14;;;;;;;;;;;21.10;80.30;;;;;;5108028;28;19969;-62
2023/03/11 12:59:58;;;;;;;;;;;21.10;80.40;;;;;;5121945;28;20010;-62
2023/03/11 13:02:32;;;;;;;;;;;21.20;80.40;;;;;;5106000;28;19908;-62
2023/03/11 13:05:11;;;;;;;;;;;21.20;80.30;;;;;;5093815;28;20045;-62
2023/03/11 13:07:45;;;;;;;;;;;21.20;80.20;;;;;;5093661;28;20362;-62
2023/03/11 13:10:13;;;;;;;;;;;21.20;80.00;;;;;;5119933;28;19914;-62
2023/03/11 13:12:49;;;;;;;;;;;21.20;80.10;;;;;;5126104;28;19914;-62
2023/03/11 13:15:24;;;;;;;;;;;21.20;80.10;;;;;;5118437;28;20319;-60
2023/03/11 13:18:01;;;;;;;;;;;21.30;80.10;;;;;;5109051;28;19920;-61
2023/03/11 13:20:55;;;;;;;;;;;21.40;80.10;;;;;;5110598;28;19998;-61
2023/03/11 13:23:41;;;;;;;;;;;21.40;79.80;;;;;;5105106;28;19911;-58
2023/03/11 13:26:20;;;;;;;;;;;21.40;79.30;;;;;;5109745;28;19957;-61
2023/03/11 13:28:52;;;;;;;;;;;21.40;79.80;;;;;;5110195;28;19908;-60
2023/03/11 13:31:23;;;;;;;;;;;21.40;79.90;;;;;;5112452;28;19970;-60
2023/03/11 13:33:51;;;;;;;;;;;21.40;79.80;;;;;;5112292;28;19907;-60
2023/03/11 13:36:20;;;;;;;;;;;21.40;79.70;;;;;;5111494;28;19907;-61
2023/03/11 13:38:45;;;;;;;;;;;21.40;79.60;;;;;;5113856;28;19969;-60
2023/03/11 13:41:16;;;;;;;;;;;21.40;79.50;;;;;;5111086;28;20250;-60
2023/03/11 13:43:49;;;;;;;;;;;21.40;79.40;;;;;;5112777;28;19929;-60
2023/03/11 13:46:23;;;;;;;;;;;21.40;79.40;;;;;;5117424;28;19914;-60
2023/03/11 13:48:49;;;;;;;;;;;21.40;79.40;;;;;;5116267;28;19904;-61
2023/03/11 13:51:30;;;;;;;;;;;21.30;79.30;;;;;;5114732;28;19965;-60
2023/03/11 13:53:58;;;;;;;;;;;21.30;79.30;;;;;;5117401;28;19908;-61
2023/03/11 13:56:29;;;;;;;;;;;21.20;79.40;;;;;;5116327;28;19982;-60
2023/03/11 13:59:13;;;;;;;;;;;21.20;79.40;;;;;;5117521;28;19912;-60
2023/03/11 14:01:39;;;;;;;;;;;21.20;79.30;;;;;;5111655;28;20270;-62
2023/03/11 14:04:09;;;;;;;;;;;21.20;79.40;;;;;;5116187;28;19918;-60
2023/03/11 14:06:35;;;;;;;;;;;21.20;79.40;;;;;;5115377;28;19908;-61
2023/03/11 14:09:00;;;;;;;;;;;21.10;79.30;;;;;;5115999;28;19907;-61
2023/03/11 14:11:28;;;;;;;;;;;21.10;79.30;;;;;;5116565;28;19998;-61
2023/03/11 14:13:54;;;;;;;;;;;21.10;79.40;;;;;;5116110;28;19915;-60
2023/03/11 14:16:29;;;;;;;;;;;21.10;79.50;;;;;;5098584;28;20412;-60
2023/03/11 14:19:03;;;;;;;;;;;21.10;79.50;;;;;;5114192;28;19904;-62
2023/03/11 14:21:30;;;;;;;;;;;21.10;79.40;;;;;;5116916;28;19922;-61